Terminal Aerodrome Forecast
Issued by NWS

Home | Current Version | Previous Version | Text Only | Print | Product List | Glossary On
Versions: 1 2 3 4 5 6 7 8 9 10 11 12 13 14 15
000
FTUS42 KTBW 301125
TAFPGD
TAF
KPGD 301125Z 3012/0112 13007KT P6SM FEW250
     FM301900 15010KT P6SM FEW250
     FM302100 19011KT P6SM FEW050 SCT250
     FM010000 VRB06KT P6SM SCT050
     FM010400 11004KT P6SM FEW200=

USA.gov is the U.S. government's official web portal to all federal, state and local government web resources and services.